Terminal Aerodrome Forecast
Issued by NWS Sterling, VA

Home | Current Version | Previous Version | Text Only | Print | Product List | Glossary On
Versions: 1 2 3 4 5 6 7 8 9 10 11 12
000
FTUS41 KLWX 220500 RRA
TAFCHO
TAF
KCHO 220544Z 2206/2306 00000KT P6SM OVC040
     FM221000 VRB03KT P6SM BKN025 OVC050
     FM221300 VRB03KT 3SM -FZRAPL OVC025
     FM221500 03004KT 3SM -FZRA OVC025
     FM221700 02004KT 3SM -RA OVC015
     FM222200 02004KT 3SM -RA SCT003 OVC008
     FM222300 02004KT P6SM SCT003 OVC008=

USA.gov is the U.S. government's official web portal to all federal, state and local government web resources and services.